Time,TemperatureF,DewpointF,PressureIn,WindDirection,WindDirectionDegrees,WindSpeedMPH,WindSpeedGustMPH,Humidity,HourlyPrecipIn,Conditions,Clouds,dailyrainin,SoftwareType,DateUTC
2013-01-25 00:10:00,16.9,2.8,30.29,ENE,67,0.0,-999.0,53,-99.99,,,0.00,Acu-Link.com,2013-01-25 05:10:00,
2013-01-25 00:25:00,17.6,2.6,30.28,West,270,0.0,-999.0,51,-99.99,,,0.00,Acu-Link.com,2013-01-25 05:25:00,
2013-01-25 00:40:00,17.8,2.8,30.26,WSW,247,0.0,-999.0,51,-99.99,,,0.00,Acu-Link.com,2013-01-25 05:40:00,
2013-01-25 00:55:00,18.1,3.1,30.27,SSE,157,0.0,-999.0,51,-99.99,,,0.00,Acu-Link.com,2013-01-25 05:55:00,
2013-01-25 01:10:00,18.0,3.4,30.28,NE,45,0.0,-999.0,52,-99.99,,,0.00,Acu-Link.com,2013-01-25 06:10:00,
2013-01-25 01:25:00,18.3,2.8,30.29,West,270,0.0,-999.0,50,-99.99,,,0.00,Acu-Link.com,2013-01-25 06:25:00,
2013-01-25 01:40:00,18.3,3.7,30.29,WNW,292,0.0,-999.0,52,-99.99,,,0.00,Acu-Link.com,2013-01-25 06:40:00,
2013-01-25 01:55:00,18.1,3.5,30.26,ESE,112,0.0,-999.0,52,-99.99,,,0.00,Acu-Link.com,2013-01-25 06:55:00,
2013-01-25 02:11:00,17.6,4.6,30.26,NNE,22,0.0,-999.0,56,-99.99,,,0.00,Acu-Link.com,2013-01-25 07:11:00,
2013-01-25 02:26:00,17.1,4.9,30.27,WNW,292,0.0,-999.0,58,-99.99,,,0.00,Acu-Link.com,2013-01-25 07:26:00,
2013-01-25 02:41:00,16.7,5.3,30.27,NW,315,0.0,-999.0,60,-99.99,,,0.00,Acu-Link.com,2013-01-25 07:41:00,
2013-01-25 02:56:00,16.0,4.6,30.28,ENE,67,0.0,-999.0,60,-99.99,,,0.00,Acu-Link.com,2013-01-25 07:56:00,
2013-01-25 03:11:00,15.4,5.1,30.25,ENE,67,0.0,-999.0,63,-99.99,,,0.00,Acu-Link.com,2013-01-25 08:11:00,
2013-01-25 03:26:00,16.2,6.2,30.24,WNW,292,0.0,-999.0,64,-99.99,,,0.00,Acu-Link.com,2013-01-25 08:26:00,
2013-01-25 03:41:00,16.0,6.3,30.26,WSW,247,0.0,-999.0,65,-99.99,,,0.00,Acu-Link.com,2013-01-25 08:41:00,
2013-01-25 03:56:00,16.3,6.3,30.26,WNW,292,0.0,-999.0,64,-99.99,,,0.00,Acu-Link.com,2013-01-25 08:56:00,
2013-01-25 04:16:00,16.3,5.9,30.27,WNW,292,0.0,-999.0,63,-99.99,,,0.00,Acu-Link.com,2013-01-25 09:16:00,
2013-01-25 04:31:00,16.5,6.1,30.25,ENE,67,0.0,-999.0,63,-99.99,,,0.00,Acu-Link.com,2013-01-25 09:31:00,
2013-01-25 04:46:00,17.1,7.1,30.22,WNW,292,0.0,-999.0,64,-99.99,,,0.00,Acu-Link.com,2013-01-25 09:46:00,
2013-01-25 05:01:00,17.8,4.8,30.25,West,270,0.0,-999.0,56,-99.99,,,0.00,Acu-Link.com,2013-01-25 10:01:00,
2013-01-25 05:16:00,17.8,4.8,30.25,SW,225,0.0,-999.0,56,-99.99,,,0.00,Acu-Link.com,2013-01-25 10:16:00,
2013-01-25 05:31:00,17.8,5.6,30.26,NW,315,0.0,-999.0,58,-99.99,,,0.00,Acu-Link.com,2013-01-25 10:31:00,
2013-01-25 05:46:00,17.2,4.6,30.23,East,90,0.0,-999.0,57,-99.99,,,0.00,Acu-Link.com,2013-01-25 10:46:00,
2013-01-25 06:01:00,17.2,5.0,30.22,ENE,67,0.0,-999.0,58,-99.99,,,0.00,Acu-Link.com,2013-01-25 11:01:00,
2013-01-25 06:17:00,17.8,4.4,30.24,NW,315,1.7,-999.0,55,-99.99,,,0.00,Acu-Link.com,2013-01-25 11:17:00,
2013-01-25 06:32:00,17.6,4.2,30.24,East,90,2.2,-999.0,55,-99.99,,,0.00,Acu-Link.com,2013-01-25 11:32:00,
2013-01-25 06:47:00,17.6,4.2,30.23,ENE,67,1.1,-999.0,55,-99.99,,,0.00,Acu-Link.com,2013-01-25 11:47:00,
2013-01-25 07:02:00,17.4,4.0,30.22,South,180,2.7,-999.0,55,-99.99,,,0.00,Acu-Link.com,2013-01-25 12:02:00,
2013-01-25 07:17:00,17.8,4.0,30.20,ESE,112,0.0,-999.0,54,-99.99,,,0.00,Acu-Link.com,2013-01-25 12:17:00,
2013-01-25 07:32:00,18.0,4.6,30.21,ESE,112,1.7,-999.0,55,-99.99,,,0.00,Acu-Link.com,2013-01-25 12:32:00,
2013-01-25 07:47:00,18.1,4.7,30.20,ESE,112,0.0,-999.0,55,-99.99,,,0.00,Acu-Link.com,2013-01-25 12:47:00,
2013-01-25 08:02:00,19.0,3.9,30.21,SSW,202,1.7,-999.0,51,-99.99,,,0.00,Acu-Link.com,2013-01-25 13:02:00,
2013-01-25 08:17:00,19.6,4.9,30.20,ENE,67,2.7,-999.0,52,-99.99,,,0.00,Acu-Link.com,2013-01-25 13:17:00,
2013-01-25 08:33:00,19.8,5.1,30.17,ESE,112,3.2,-999.0,52,-99.99,,,0.00,Acu-Link.com,2013-01-25 13:33:00,
2013-01-25 08:48:00,20.3,5.1,30.18,SW,225,1.7,-999.0,51,-99.99,,,0.00,Acu-Link.com,2013-01-25 13:48:00,
2013-01-25 09:03:00,20.7,5.0,30.20,WNW,292,2.7,-999.0,50,-99.99,,,0.00,Acu-Link.com,2013-01-25 14:03:00,
2013-01-25 09:18:00,20.7,5.0,30.19,NNE,22,2.2,-999.0,50,-99.99,,,0.00,Acu-Link.com,2013-01-25 14:18:00,
2013-01-25 09:33:00,21.0,5.3,30.19,North,0,3.2,-999.0,50,-99.99,,,0.00,Acu-Link.com,2013-01-25 14:33:00,
2013-01-25 09:48:00,20.8,4.7,30.16,West,270,3.2,-999.0,49,-99.99,,,0.00,Acu-Link.com,2013-01-25 14:48:00,
2013-01-25 10:03:00,21.0,5.3,30.14,West,270,2.7,-999.0,50,-99.99,,,0.00,Acu-Link.com,2013-01-25 15:03:00,
2013-01-25 10:18:00,21.2,5.1,30.15,NE,45,3.2,-999.0,49,-99.99,,,0.00,Acu-Link.com,2013-01-25 15:18:00,
2013-01-25 10:33:00,21.7,5.1,30.15,ENE,67,3.2,-999.0,48,-99.99,,,0.00,Acu-Link.com,2013-01-25 15:33:00,
2013-01-25 10:49:00,22.1,6.3,30.13,ESE,112,6.3,-999.0,50,-99.99,,,0.00,Acu-Link.com,2013-01-25 15:49:00,
2013-01-25 11:04:00,22.1,6.3,30.12,SSE,157,3.2,-999.0,50,-99.99,,,0.00,Acu-Link.com,2013-01-25 16:04:00,
2013-01-25 11:19:00,21.7,9.6,30.09,SSE,157,3.7,-999.0,59,-99.99,,,0.00,Acu-Link.com,2013-01-25 16:19:00,
2013-01-25 11:34:00,20.8,11.6,30.09,South,180,6.3,-999.0,67,-99.99,,,0.00,Acu-Link.com,2013-01-25 16:34:00,
2013-01-25 11:49:00,20.5,14.8,30.09,NE,45,6.3,-999.0,78,-99.99,,,0.00,Acu-Link.com,2013-01-25 16:49:00,
2013-01-25 12:04:00,21.2,16.3,30.07,ESE,112,6.3,-999.0,81,-99.99,,,0.00,Acu-Link.com,2013-01-25 17:04:00,
2013-01-25 12:19:00,20.7,15.2,30.05,ESE,112,5.8,-999.0,79,-99.99,,,0.00,Acu-Link.com,2013-01-25 17:19:00,
2013-01-25 12:34:00,21.0,16.9,30.03,SW,225,3.2,-999.0,84,-99.99,,,0.00,Acu-Link.com,2013-01-25 17:34:00,
2013-01-25 12:49:00,21.2,17.4,29.99,ENE,67,4.7,-999.0,85,-99.99,,,0.00,Acu-Link.com,2013-01-25 17:49:00,
2013-01-25 13:05:00,20.8,20.3,29.98,East,90,5.3,-999.0,98,-99.99,,,0.00,Acu-Link.com,2013-01-25 18:05:00,
2013-01-25 13:20:00,20.5,20.0,29.98,SSE,157,5.3,-999.0,98,-99.99,,,0.00,Acu-Link.com,2013-01-25 18:20:00,
2013-01-25 13:35:00,20.7,20.2,29.99,East,90,5.3,-999.0,98,-99.99,,,0.00,Acu-Link.com,2013-01-25 18:35:00,
2013-01-25 13:50:00,21.6,21.1,29.97,ESE,112,6.3,-999.0,98,-99.99,,,0.00,Acu-Link.com,2013-01-25 18:50:00,
2013-01-25 14:05:00,21.7,18.2,29.95,ESE,112,7.8,-999.0,86,-99.99,,,0.00,Acu-Link.com,2013-01-25 19:05:00,
2013-01-25 14:20:00,21.7,18.2,29.93,West,270,2.7,-999.0,86,-99.99,,,0.00,Acu-Link.com,2013-01-25 19:20:00,
2013-01-25 14:35:00,21.6,18.1,29.93,SSE,157,3.7,-999.0,86,-99.99,,,0.00,Acu-Link.com,2013-01-25 19:35:00,
2013-01-25 14:50:00,22.1,20.1,29.93,West,270,2.2,-999.0,92,-99.99,,,0.00,Acu-Link.com,2013-01-25 19:50:00,
2013-01-25 15:05:00,22.6,19.1,29.93,ENE,67,2.2,-999.0,86,-99.99,,,0.00,Acu-Link.com,2013-01-25 20:05:00,
2013-01-25 15:21:00,22.8,19.0,29.91,South,180,3.2,-999.0,85,-99.99,,,0.00,Acu-Link.com,2013-01-25 20:21:00,
2013-01-25 15:36:00,22.6,18.8,29.88,South,180,2.2,-999.0,85,-99.99,,,0.00,Acu-Link.com,2013-01-25 20:36:00,
2013-01-25 15:51:00,22.3,18.8,29.89,SW,225,2.2,-999.0,86,-99.99,,,0.00,Acu-Link.com,2013-01-25 20:51:00,
2013-01-25 16:06:00,22.3,19.0,29.89,East,90,2.7,-999.0,87,-99.99,,,0.00,Acu-Link.com,2013-01-25 21:06:00,
2013-01-25 16:21:00,22.1,18.8,29.89,ENE,67,2.2,-999.0,87,-99.99,,,0.00,Acu-Link.com,2013-01-25 21:21:00,
2013-01-25 16:36:00,21.9,20.9,29.88,ENE,67,1.7,-999.0,96,-99.99,,,0.00,Acu-Link.com,2013-01-25 21:36:00,
2013-01-25 16:51:00,22.1,21.6,29.86,ENE,67,0.0,-999.0,98,-99.99,,,0.00,Acu-Link.com,2013-01-25 21:51:00,
2013-01-25 17:06:00,21.7,21.2,29.87,SW,225,2.2,-999.0,98,-99.99,,,0.00,Acu-Link.com,2013-01-25 22:06:00,
2013-01-25 17:21:00,21.6,21.1,29.87,WNW,292,0.0,-999.0,98,-99.99,,,0.00,Acu-Link.com,2013-01-25 22:21:00,
2013-01-25 17:37:00,21.2,20.7,29.88,East,90,0.0,-999.0,98,-99.99,,,0.00,Acu-Link.com,2013-01-25 22:37:00,
2013-01-25 17:52:00,21.4,20.9,29.86,East,90,1.7,-999.0,98,-99.99,,,0.00,Acu-Link.com,2013-01-25 22:52:00,
2013-01-25 18:07:00,21.2,20.7,29.85,SSW,202,2.7,-999.0,98,-99.99,,,0.00,Acu-Link.com,2013-01-25 23:07:00,
2013-01-25 18:22:00,21.4,20.9,29.86,East,90,0.0,-999.0,98,-99.99,,,0.00,Acu-Link.com,2013-01-25 23:22:00,
2013-01-25 18:37:00,21.4,20.9,29.87,East,90,0.0,-999.0,98,-99.99,,,0.00,Acu-Link.com,2013-01-25 23:37:00,
2013-01-25 18:52:00,21.6,21.1,29.86,SE,135,1.7,-999.0,98,-99.99,,,0.00,Acu-Link.com,2013-01-25 23:52:00,
2013-01-25 19:07:00,21.6,21.1,29.85,ESE,112,0.0,-999.0,98,-99.99,,,0.00,Acu-Link.com,2013-01-26 00:07:00,
2013-01-25 19:22:00,21.7,21.2,29.85,East,90,1.1,-999.0,98,-99.99,,,0.00,Acu-Link.com,2013-01-26 00:22:00,
2013-01-25 19:37:00,21.7,21.2,29.85,NNE,22,0.0,-999.0,98,-99.99,,,0.00,Acu-Link.com,2013-01-26 00:37:00,
2013-01-25 19:53:00,21.9,21.4,29.86,East,90,0.0,-999.0,98,-99.99,,,0.00,Acu-Link.com,2013-01-26 00:53:00,
2013-01-25 20:08:00,21.7,21.2,29.86,South,180,0.0,-999.0,98,-99.99,,,0.00,Acu-Link.com,2013-01-26 01:08:00,
2013-01-25 20:23:00,21.7,21.2,29.84,ESE,112,0.0,-999.0,98,-99.99,,,0.00,Acu-Link.com,2013-01-26 01:23:00,
2013-01-25 20:38:00,21.7,21.2,29.84,ESE,112,0.0,-999.0,98,-99.99,,,0.00,Acu-Link.com,2013-01-26 01:38:00,
2013-01-25 20:53:00,21.9,21.4,29.84,ENE,67,1.1,-999.0,98,-99.99,,,0.00,Acu-Link.com,2013-01-26 01:53:00,
2013-01-25 21:08:00,21.9,21.4,29.85,ESE,112,0.0,-999.0,98,-99.99,,,0.00,Acu-Link.com,2013-01-26 02:08:00,
2013-01-25 21:23:00,22.1,21.6,29.86,SW,225,0.0,-999.0,98,-99.99,,,0.00,Acu-Link.com,2013-01-26 02:23:00,
2013-01-25 21:38:00,22.3,21.8,29.85,NNE,22,0.0,-999.0,98,-99.99,,,0.00,Acu-Link.com,2013-01-26 02:38:00,
2013-01-25 21:53:00,22.3,21.8,29.86,ENE,67,0.0,-999.0,98,-99.99,,,0.00,Acu-Link.com,2013-01-26 02:53:00,
2013-01-25 22:08:00,22.5,22.0,29.85,ESE,112,0.0,-999.0,98,-99.99,,,0.00,Acu-Link.com,2013-01-26 03:08:00,
2013-01-25 22:24:00,22.3,21.8,29.86,ESE,112,0.0,-999.0,98,-99.99,,,0.00,Acu-Link.com,2013-01-26 03:24:00,
2013-01-25 22:39:00,22.3,21.8,29.86,NW,315,0.0,-999.0,98,-99.99,,,0.00,Acu-Link.com,2013-01-26 03:39:00,
2013-01-25 22:54:00,22.6,22.1,29.84,SSE,157,0.0,-999.0,98,-99.99,,,0.00,Acu-Link.com,2013-01-26 03:54:00,
2013-01-25 23:09:00,22.8,22.3,29.83,East,90,0.0,-999.0,98,-99.99,,,0.00,Acu-Link.com,2013-01-26 04:09:00,
2013-01-25 23:24:00,22.8,22.3,29.84,West,270,0.0,-999.0,98,-99.99,,,0.00,Acu-Link.com,2013-01-26 04:24:00,
2013-01-25 23:39:00,23.0,22.5,29.84,SSE,157,0.0,-999.0,98,-99.99,,,0.00,Acu-Link.com,2013-01-26 04:39:00,
2013-01-25 23:54:00,22.3,21.8,29.84,SE,135,1.7,-999.0,98,-99.99,,,0.00,Acu-Link.com,2013-01-26 04:54:00,